createdAt,value
2024-05-09T00:01:10.860Z,59.14
2024-05-09T00:31:17.838Z,61.12
2024-05-09T01:01:22.188Z,61.34
2024-05-09T01:31:25.947Z,60.13
2024-05-09T02:01:31.466Z,60.96
2024-05-09T02:31:54.261Z,60.54
2024-05-09T03:01:59.712Z,61.20
2024-05-09T03:32:02.375Z,60.68
2024-05-09T04:02:08.228Z,60.52
2024-05-09T04:32:11.212Z,61.73
2024-05-09T05:02:15.820Z,60.25
2024-05-09T05:32:19.748Z,58.68
2024-05-09T06:02:24.402Z,58.42
2024-05-09T06:32:26.963Z,55.81
2024-05-09T07:02:31.972Z,58.85
2024-05-09T07:32:35.118Z,60.49
2024-05-09T08:02:39.039Z,59.63
2024-05-09T08:32:41.926Z,57.31
2024-05-09T09:02:45.702Z,54.39
2024-05-09T09:32:49.346Z,52.00
2024-05-09T10:02:52.515Z,51.61
2024-05-09T10:32:55.761Z,49.60
2024-05-09T11:02:59.881Z,47.83
2024-05-09T11:33:02.790Z,43.42
2024-05-09T12:03:07.302Z,41.73
2024-05-09T12:33:11.288Z,40.98
2024-05-09T13:03:19.377Z,39.35
2024-05-09T13:33:23.163Z,38.13
2024-05-09T14:03:28.329Z,38.18
2024-05-09T14:33:32.361Z,37.43
2024-05-09T15:03:35.448Z,37.87
2024-05-09T15:33:41.169Z,37.99
2024-05-09T16:03:47.355Z,38.91
2024-05-09T16:33:52.283Z,39.07
2024-05-09T17:03:55.759Z,39.93
2024-05-09T17:33:59.773Z,42.49
2024-05-09T18:04:05.268Z,47.25
2024-05-09T18:34:08.936Z,51.13
2024-05-09T19:04:12.346Z,53.83
2024-05-09T19:34:16.127Z,56.45
2024-05-09T20:04:21.383Z,56.53
2024-05-09T20:34:25.137Z,56.71
2024-05-09T21:04:30.756Z,61.05
2024-05-09T21:34:34.383Z,59.83
2024-05-09T22:04:39.356Z,58.10
2024-05-09T22:34:42.873Z,58.64
2024-05-09T23:04:47.781Z,60.45
2024-05-09T23:34:51.308Z,60.95
